Terminal Aerodrome Forecast
Issued by NWS Cleveland, OH

Home | Current Version | Previous Version | Graphics & Text | Print | Product List | Glossary On
Versions: 1 2 3 4 5 6 7 8 9 10 11 12 13 14 15 16
112
FTUS41 KCLE 151725
TAFMFD
TAF
KMFD 151725Z 1518/1618 17011KT 2SM -SN SCT012 OVC035
      TEMPO 1518/1522 1SM -SN BKN012
     FM160100 20009KT 4SM -SN OVC010
     FM160200 22009KT P6SM OVC010
     FM160700 25009KT P6SM BKN010=

USA.gov is the U.S. government's official web portal to all federal, state and local government web resources and services.